createdAt,value
2019-05-03T00:02:17.833Z,95867.25
2019-05-03T00:04:45.531Z,95868.45
2019-05-03T00:07:11.831Z,95871.78
2019-05-03T00:09:37.735Z,95867.09
2019-05-03T00:12:03.554Z,95867.19
2019-05-03T00:14:32.371Z,95865.95
2019-05-03T00:16:58.206Z,95864.30
2019-05-03T00:19:24.274Z,95866.29
2019-05-03T00:21:50.072Z,95864.50
2019-05-03T00:24:16.137Z,95864.41
2019-05-03T00:26:42.363Z,95867.52
2019-05-03T00:29:08.398Z,95873.83
2019-05-03T00:31:34.463Z,95869.23
2019-05-03T00:34:05.018Z,95869.48
2019-05-03T00:36:48.198Z,95871.14
2019-05-03T00:39:15.881Z,95865.83
2019-05-03T00:41:42.581Z,95867.73
2019-05-03T00:44:08.493Z,95869.98
2019-05-03T00:46:34.548Z,95866.19
2019-05-03T00:49:00.643Z,95862.03
2019-05-03T00:51:26.472Z,95862.73
2019-05-03T00:53:53.065Z,95860.48
2019-05-03T00:56:19.053Z,95790.49
2019-05-03T00:58:49.580Z,95857.66
2019-05-03T01:01:16.490Z,95860.58
2019-05-03T01:03:42.300Z,95847.95
2019-05-03T01:06:08.376Z,95852.56
2019-05-03T01:08:34.166Z,95851.27
2019-05-03T01:11:01.994Z,95856.46
2019-05-03T01:13:27.653Z,95853.45
2019-05-03T01:16:02.761Z,95851.45
2019-05-03T01:18:28.680Z,95854.27
2019-05-03T01:20:54.476Z,95861.37
2019-05-03T01:23:21.917Z,95851.84
2019-05-03T01:25:47.881Z,95856.01
2019-05-03T01:28:13.692Z,95858.51
2019-05-03T01:30:39.735Z,95861.80
2019-05-03T01:33:05.531Z,95855.05
2019-05-03T01:35:32.257Z,95863.71
2019-05-03T01:37:58.136Z,95798.69
2019-05-03T01:40:24.203Z,95863.98
2019-05-03T01:42:51.818Z,95863.62
2019-05-03T01:45:17.982Z,95866.21
2019-05-03T01:47:48.745Z,95866.12
2019-05-03T01:50:32.092Z,95864.93
2019-05-03T01:53:02.825Z,95864.80
2019-05-03T01:55:47.338Z,95865.62
2019-05-03T01:58:13.401Z,95866.20
2019-05-03T02:00:39.217Z,95860.61
2019-05-03T02:03:07.180Z,95866.84
2019-05-03T02:05:43.857Z,95860.95
2019-05-03T02:08:12.553Z,95858.01
2019-05-03T02:10:38.471Z,95867.36
2019-05-03T02:13:04.599Z,95860.61
2019-05-03T02:15:30.414Z,95860.61
2019-05-03T02:17:56.201Z,95862.50
2019-05-03T02:20:22.240Z,95864.80
2019-05-03T02:22:48.322Z,95875.78
2019-05-03T02:25:14.374Z,95870.45
2019-05-03T02:27:42.348Z,95864.75
2019-05-03T02:30:08.320Z,95873.62
2019-05-03T02:32:34.369Z,95868.81
2019-05-03T02:35:02.739Z,95873.22
2019-05-03T02:37:28.494Z,95871.08
2019-05-03T02:39:55.228Z,95870.83
2019-05-03T02:42:21.027Z,95870.36
2019-05-03T02:44:46.804Z,95871.02
2019-05-03T02:47:31.209Z,95871.86
2019-05-03T02:49:58.907Z,95868.41
2019-05-03T02:52:36.581Z,95872.66
2019-05-03T02:55:06.098Z,95874.12
2019-05-03T02:57:31.875Z,95879.20
2019-05-03T02:59:57.652Z,95879.77
2019-05-03T03:02:26.402Z,95884.03
2019-05-03T03:04:51.824Z,95879.30
2019-05-03T03:07:17.946Z,95880.11
2019-05-03T03:09:45.238Z,95878.20
2019-05-03T03:12:11.551Z,95881.90
2019-05-03T03:14:38.670Z,95873.95
2019-05-03T03:17:06.761Z,95834.10
2019-05-03T03:19:35.302Z,95871.92
2019-05-03T03:22:05.946Z,95880.52
2019-05-03T03:24:32.381Z,95882.34
2019-05-03T03:26:58.274Z,95884.67
2019-05-03T03:29:26.470Z,95884.50
2019-05-03T03:32:10.437Z,95882.02
2019-05-03T03:34:40.059Z,95884.67
2019-05-03T03:37:10.361Z,95884.79
2019-05-03T03:39:36.086Z,95889.99
2019-05-03T03:42:05.131Z,95881.39
2019-05-03T03:44:30.272Z,95888.17
2019-05-03T03:46:57.305Z,95888.16
2019-05-03T03:49:26.155Z,95887.10
2019-05-03T03:51:52.268Z,95890.67
2019-05-03T03:54:18.995Z,95895.34
2019-05-03T03:56:59.283Z,95892.78
2019-05-03T03:59:26.725Z,95894.48
2019-05-03T04:01:55.110Z,95913.47
2019-05-03T04:04:21.967Z,95893.34
2019-05-03T04:06:48.949Z,95895.44
2019-05-03T04:09:16.046Z,95902.56
2019-05-03T04:11:42.096Z,95903.16
2019-05-03T04:14:09.909Z,95911.30
2019-05-03T04:16:38.312Z,95904.83
2019-05-03T04:19:13.117Z,95901.77
2019-05-03T04:21:39.002Z,95910.63
2019-05-03T04:24:05.939Z,95910.95
2019-05-03T04:26:32.281Z,95914.98
2019-05-03T04:28:58.722Z,95915.30
2019-05-03T04:31:26.106Z,95904.66
2019-05-03T04:33:52.137Z,95908.75
2019-05-03T04:36:17.931Z,95914.29
2019-05-03T04:38:45.316Z,95915.86
2019-05-03T04:41:11.330Z,95919.45
2019-05-03T04:43:37.360Z,95918.46
2019-05-03T04:46:08.316Z,95920.35
2019-05-03T04:48:35.784Z,95921.57
2019-05-03T04:51:02.169Z,95930.22
2019-05-03T04:53:28.913Z,95930.22
2019-05-03T04:55:55.899Z,95930.09
2019-05-03T04:58:21.802Z,95931.96
2019-05-03T05:00:47.581Z,95935.98
2019-05-03T05:03:15.045Z,95933.30
2019-05-03T05:05:41.067Z,95935.55
2019-05-03T05:08:06.899Z,95944.45
2019-05-03T05:10:32.659Z,95943.60
2019-05-03T05:12:58.475Z,95946.20
2019-05-03T05:15:26.519Z,95945.69
2019-05-03T05:17:56.127Z,95950.97
2019-05-03T05:20:24.803Z,95947.75
2019-05-03T05:22:50.982Z,95956.66
2019-05-03T05:25:21.751Z,95957.50
2019-05-03T05:27:58.052Z,95956.30
2019-05-03T05:30:25.179Z,95963.47
2019-05-03T05:32:51.159Z,95959.97
2019-05-03T05:35:17.007Z,95963.28
2019-05-03T05:37:44.421Z,95968.84
2019-05-03T05:40:10.317Z,95970.82
2019-05-03T05:42:36.375Z,95976.86
2019-05-03T05:45:04.976Z,95976.86
2019-05-03T05:47:34.495Z,95990.23
2019-05-03T05:50:02.407Z,95994.31
2019-05-03T05:52:28.200Z,95993.30
2019-05-03T05:54:56.205Z,95999.91
2019-05-03T05:57:25.611Z,96006.96
2019-05-03T05:59:56.172Z,96015.33
2019-05-03T06:02:22.221Z,96025.68
2019-05-03T06:04:48.038Z,96030.16
2019-05-03T06:07:28.121Z,96036.95
2019-05-03T06:09:55.831Z,96037.03
2019-05-03T06:12:38.830Z,96039.52
2019-05-03T06:15:07.541Z,96045.80
2019-05-03T06:17:35.472Z,96050.20
2019-05-03T06:20:22.306Z,96050.16
2019-05-03T06:22:50.268Z,96053.39
2019-05-03T06:25:27.016Z,96055.63
2019-05-03T06:27:54.867Z,96059.83
2019-05-03T06:30:22.425Z,96061.09
2019-05-03T06:32:48.537Z,96057.43
2019-05-03T06:35:15.214Z,96063.48
2019-05-03T06:37:45.882Z,96066.08
2019-05-03T06:40:12.412Z,96067.01
2019-05-03T06:42:50.952Z,96067.87
2019-05-03T06:45:10.472Z,96068.23
2019-05-03T06:47:34.858Z,96066.80
2019-05-03T06:50:00.744Z,96069.31
2019-05-03T06:52:29.341Z,96075.52
2019-05-03T06:54:55.362Z,96076.28
2019-05-03T06:57:21.217Z,96079.56
2019-05-03T06:59:48.934Z,96085.84
2019-05-03T07:02:22.345Z,96082.21
2019-05-03T07:04:50.054Z,96082.61
2019-05-03T07:07:29.968Z,96086.42
2019-05-03T07:10:06.426Z,96086.11
2019-05-03T07:12:51.158Z,96089.16
2019-05-03T07:15:25.176Z,96094.34
2019-05-03T07:17:55.607Z,96091.58
2019-05-03T07:20:21.720Z,96095.16
2019-05-03T07:22:47.538Z,96095.44
2019-05-03T07:25:14.962Z,96098.48
2019-05-03T07:27:45.227Z,96101.40
2019-05-03T07:30:11.806Z,96130.03
2019-05-03T07:32:39.011Z,96106.80
2019-05-03T07:35:05.140Z,96102.09
2019-05-03T07:37:31.254Z,96115.05
2019-05-03T07:39:57.029Z,96105.48
2019-05-03T07:42:23.070Z,96101.42
2019-05-03T07:44:48.844Z,96107.96
2019-05-03T07:47:14.927Z,96108.27
2019-05-03T07:49:44.704Z,96107.81
2019-05-03T07:52:11.835Z,96124.05
2019-05-03T07:54:37.845Z,96105.25
2019-05-03T07:57:05.809Z,96126.87
2019-05-03T07:59:35.684Z,96107.68
2019-05-03T08:02:01.531Z,96109.79
2019-05-03T08:04:27.314Z,96100.69
2019-05-03T08:06:54.916Z,96096.19
2019-05-03T08:09:24.641Z,96096.58
2019-05-03T08:11:50.539Z,96117.97
2019-05-03T08:14:18.300Z,96095.52
2019-05-03T08:16:45.635Z,96090.82
2019-05-03T08:19:11.853Z,96086.09
2019-05-03T08:21:38.970Z,96087.38
2019-05-03T08:24:05.507Z,96089.13
2019-05-03T08:26:31.298Z,96088.42
2019-05-03T08:28:57.101Z,96083.69
2019-05-03T08:31:37.564Z,96089.40
2019-05-03T08:34:06.006Z,96092.20
2019-05-03T08:36:36.837Z,96094.30
2019-05-03T08:39:05.447Z,96094.70
2019-05-03T08:41:35.173Z,96100.38
2019-05-03T08:44:01.064Z,96092.32
2019-05-03T08:46:26.855Z,96090.78
2019-05-03T08:48:54.854Z,96091.34
2019-05-03T08:51:20.863Z,96085.03
2019-05-03T08:53:46.679Z,96091.33
2019-05-03T08:56:12.764Z,96091.92
2019-05-03T08:58:38.572Z,96095.64
2019-05-03T09:01:05.675Z,96096.02
2019-05-03T09:03:31.730Z,96094.36
2019-05-03T09:05:57.511Z,96090.81
2019-05-03T09:08:24.889Z,96087.72
2019-05-03T09:10:55.940Z,96091.92
2019-05-03T09:13:22.044Z,96090.92
2019-05-03T09:15:49.728Z,96089.50
2019-05-03T09:18:17.475Z,96098.52
2019-05-03T09:20:44.821Z,96095.54
2019-05-03T09:23:10.787Z,96092.21
2019-05-03T09:25:36.593Z,96088.90
2019-05-03T09:28:04.733Z,96084.70
2019-05-03T09:30:30.717Z,95958.17
2019-05-03T09:32:56.618Z,96080.12
2019-05-03T09:35:30.553Z,96085.43
2019-05-03T09:37:50.354Z,96087.97
2019-05-03T09:40:16.157Z,96088.73
2019-05-03T09:42:41.950Z,96088.27
2019-05-03T09:45:08.665Z,96094.38
2019-05-03T09:47:35.345Z,96092.92
2019-05-03T09:50:02.352Z,96093.52
2019-05-03T09:52:28.516Z,96098.07
2019-05-03T09:54:56.214Z,96098.80
2019-05-03T09:57:22.004Z,96095.33
2019-05-03T09:59:56.471Z,96096.61
2019-05-03T10:02:15.746Z,96095.69
2019-05-03T10:04:41.565Z,96102.42
2019-05-03T10:07:07.368Z,96094.30
2019-05-03T10:09:35.196Z,96090.36
2019-05-03T10:12:01.841Z,96087.59
2019-05-03T10:14:27.622Z,96087.23
2019-05-03T10:16:55.313Z,96087.34
2019-05-03T10:19:34.109Z,96084.70
2019-05-03T10:21:49.313Z,96085.76
2019-05-03T10:24:15.297Z,96081.99
2019-05-03T10:26:41.117Z,96079.20
2019-05-03T10:29:07.240Z,96077.13
2019-05-03T10:31:38.029Z,96072.78
2019-05-03T10:34:05.834Z,96070.23
2019-05-03T10:36:31.908Z,96073.98
2019-05-03T10:38:57.987Z,96067.66
2019-05-03T10:41:25.112Z,96056.30
2019-05-03T10:43:51.528Z,96057.30
2019-05-03T10:46:17.309Z,96063.73
2019-05-03T10:48:45.133Z,96067.41
2019-05-03T10:51:10.840Z,96066.30
2019-05-03T10:53:38.523Z,96072.52
2019-05-03T10:56:22.781Z,96070.63
2019-05-03T10:58:59.757Z,96070.02
2019-05-03T11:01:30.201Z,96074.89
2019-05-03T11:03:56.018Z,96079.67
2019-05-03T11:06:21.810Z,96068.84
2019-05-03T11:08:47.833Z,96069.31
2019-05-03T11:11:15.112Z,96068.72
2019-05-03T11:13:41.050Z,96065.85
2019-05-03T11:16:06.942Z,96068.28
2019-05-03T11:18:34.549Z,96064.52
2019-05-03T11:21:00.671Z,96065.45
2019-05-03T11:23:26.685Z,96060.64
2019-05-03T11:25:52.493Z,96064.44
2019-05-03T11:28:20.199Z,96059.91
2019-05-03T11:30:53.627Z,96054.03
2019-05-03T11:33:15.997Z,96057.94
2019-05-03T11:35:44.712Z,96055.59
2019-05-03T11:38:14.948Z,96048.10
2019-05-03T11:40:40.429Z,96050.48
2019-05-03T11:43:06.328Z,96044.21
2019-05-03T11:45:32.149Z,96046.52
2019-05-03T11:47:58.206Z,96046.44
2019-05-03T11:50:25.327Z,96045.12
2019-05-03T11:52:51.389Z,96045.59
2019-05-03T11:55:17.410Z,96047.59
2019-05-03T11:57:45.019Z,96042.58
2019-05-03T12:00:14.752Z,96036.61
2019-05-03T12:02:44.776Z,96032.89
2019-05-03T12:05:18.068Z,96035.09
2019-05-03T12:07:45.540Z,96031.75
2019-05-03T12:10:26.921Z,96025.74
2019-05-03T12:12:41.141Z,96022.09
2019-05-03T12:15:06.939Z,96031.11
2019-05-03T12:17:35.368Z,96033.08
2019-05-03T12:20:05.009Z,96029.06
2019-05-03T12:22:31.801Z,96018.92
2019-05-03T12:24:58.528Z,96026.91
2019-05-03T12:27:25.046Z,96020.23
2019-05-03T12:29:52.444Z,96018.86
2019-05-03T12:32:18.357Z,96017.91
2019-05-03T12:34:44.401Z,96005.69
2019-05-03T12:37:10.202Z,96008.44
2019-05-03T12:39:36.107Z,96006.38
2019-05-03T12:42:01.968Z,96005.80
2019-05-03T12:44:27.762Z,96004.51
2019-05-03T12:46:53.534Z,95999.78
2019-05-03T12:49:19.351Z,95996.52
2019-05-03T12:51:45.412Z,95995.77
2019-05-03T12:54:11.222Z,95998.43
2019-05-03T12:56:37.322Z,95995.92
2019-05-03T12:59:15.922Z,95994.98
2019-05-03T13:01:56.069Z,95989.26
2019-05-03T13:04:24.859Z,95981.01
2019-05-03T13:06:59.630Z,95982.68
2019-05-03T13:09:25.437Z,95976.80
2019-05-03T13:11:58.934Z,95973.38
2019-05-03T13:14:26.882Z,95971.16
2019-05-03T13:16:55.071Z,95990.20
2019-05-03T13:19:20.951Z,95964.08
2019-05-03T13:21:46.772Z,95964.80
2019-05-03T13:24:22.837Z,95967.50
2019-05-03T13:26:40.558Z,95955.69
2019-05-03T13:29:06.374Z,95955.69
2019-05-03T13:31:32.183Z,95959.47
2019-05-03T13:33:58.235Z,95957.81
2019-05-03T13:36:27.018Z,95954.58
2019-05-03T13:38:55.902Z,95956.36
2019-05-03T13:41:25.029Z,95956.36
2019-05-03T13:43:50.901Z,95956.88
2019-05-03T13:46:16.671Z,95943.89
2019-05-03T13:48:45.930Z,95942.98
2019-05-03T13:51:14.735Z,95942.95
2019-05-03T13:53:40.661Z,95939.61
2019-05-03T13:56:06.479Z,95933.64
2019-05-03T13:58:32.641Z,95912.81
2019-05-03T14:00:58.736Z,95942.77
2019-05-03T14:03:24.522Z,95935.33
2019-05-03T14:05:50.522Z,95927.79
2019-05-03T14:08:19.765Z,95933.88
2019-05-03T14:10:45.808Z,95933.88
2019-05-03T14:13:11.638Z,95938.92
2019-05-03T14:15:37.439Z,95953.20
2019-05-03T14:18:10.915Z,95935.66
2019-05-03T14:20:55.220Z,95929.33
2019-05-03T14:23:21.383Z,95927.25
2019-05-03T14:25:47.187Z,95931.63
2019-05-03T14:28:14.582Z,95935.00
2019-05-03T14:30:40.468Z,95933.38
2019-05-03T14:33:06.563Z,95932.32
2019-05-03T14:35:34.518Z,95932.75
2019-05-03T14:38:00.070Z,95930.01
2019-05-03T14:40:26.144Z,95934.38
2019-05-03T14:42:51.966Z,95933.48
2019-05-03T14:45:18.079Z,95919.08
2019-05-03T14:47:43.902Z,95910.93
2019-05-03T14:50:10.641Z,95910.93
2019-05-03T14:52:36.470Z,95930.69
2019-05-03T14:55:14.772Z,95929.98
2019-05-03T14:57:51.633Z,95924.18
2019-05-03T15:00:19.464Z,95925.45
2019-05-03T15:02:50.915Z,95925.45
2019-05-03T15:05:15.412Z,95923.88
2019-05-03T15:07:41.182Z,95923.88
2019-05-03T15:10:07.214Z,95926.99
2019-05-03T15:12:35.404Z,95932.80
2019-05-03T15:15:01.071Z,95922.86
2019-05-03T15:17:27.150Z,95910.98
2019-05-03T15:19:54.729Z,95912.84
2019-05-03T15:22:20.641Z,95922.94
2019-05-03T15:24:46.425Z,95922.94
2019-05-03T15:27:12.229Z,95920.56
2019-05-03T15:29:38.054Z,95918.66
2019-05-03T15:32:05.010Z,95917.44
2019-05-03T15:34:31.075Z,95918.95
2019-05-03T15:36:57.091Z,95917.16
2019-05-03T15:39:22.911Z,95916.99
2019-05-03T15:41:48.714Z,95916.99
2019-05-03T15:44:16.713Z,95922.23
2019-05-03T15:46:45.035Z,95927.17
2019-05-03T15:49:10.996Z,95923.81
2019-05-03T15:51:37.007Z,95923.81
2019-05-03T15:54:04.553Z,95926.57
2019-05-03T15:56:30.655Z,95925.88
2019-05-03T15:58:56.455Z,95929.92
2019-05-03T16:01:22.253Z,95925.84
2019-05-03T16:03:48.053Z,95927.50
2019-05-03T16:06:15.517Z,95923.92
2019-05-03T16:08:41.784Z,95925.78
2019-05-03T16:11:07.591Z,95932.16
2019-05-03T16:13:35.130Z,95924.47
2019-05-03T16:16:01.119Z,95920.53
2019-05-03T16:18:26.938Z,95930.87
2019-05-03T16:20:54.628Z,95929.11
2019-05-03T16:23:20.710Z,95929.95
2019-05-03T16:25:46.534Z,95924.03
2019-05-03T16:28:15.217Z,95923.33
2019-05-03T16:30:43.002Z,95915.82
2019-05-03T16:33:08.777Z,95915.28
2019-05-03T16:35:37.606Z,95916.91
2019-05-03T16:38:02.912Z,95855.75
2019-05-03T16:40:29.008Z,95918.98
2019-05-03T16:42:54.802Z,95919.05
2019-05-03T16:45:20.856Z,95920.58
2019-05-03T16:47:46.896Z,95914.52
2019-05-03T16:50:14.523Z,95919.58
2019-05-03T16:52:40.386Z,95923.64
2019-05-03T16:55:06.266Z,95924.64
2019-05-03T16:57:32.083Z,95916.37
2019-05-03T16:59:58.144Z,95916.77
2019-05-03T17:02:24.575Z,95900.17
2019-05-03T17:04:52.433Z,95918.52
2019-05-03T17:07:36.829Z,95917.00
2019-05-03T17:10:25.416Z,95913.77
2019-05-03T17:12:51.105Z,95919.34
2019-05-03T17:15:17.382Z,95913.63
2019-05-03T17:17:45.175Z,95921.97
2019-05-03T17:20:11.238Z,95915.63
2019-05-03T17:22:37.802Z,95914.95
2019-05-03T17:25:06.394Z,95907.31
2019-05-03T17:27:31.997Z,95910.67
2019-05-03T17:29:57.887Z,95908.74
2019-05-03T17:32:24.565Z,95914.03
2019-05-03T17:34:50.463Z,95918.30
2019-05-03T17:37:16.251Z,95909.84
2019-05-03T17:40:03.126Z,95918.39
2019-05-03T17:42:47.481Z,95913.77
2019-05-03T17:45:15.290Z,95919.01
2019-05-03T17:47:41.137Z,95924.85
2019-05-03T17:50:07.021Z,95918.71
2019-05-03T17:52:51.658Z,95918.71
2019-05-03T17:55:19.637Z,95920.92
2019-05-03T17:57:47.658Z,95929.00
2019-05-03T18:00:24.561Z,95926.41
2019-05-03T18:02:50.771Z,95930.50
2019-05-03T18:05:35.768Z,95930.27
2019-05-03T18:08:15.637Z,95932.20
2019-05-03T18:10:43.347Z,95926.80
2019-05-03T18:13:09.150Z,95926.14
2019-05-03T18:15:34.973Z,95925.28
2019-05-03T18:18:01.128Z,95929.83
2019-05-03T18:20:26.923Z,95929.89
2019-05-03T18:22:54.698Z,95933.59
2019-05-03T18:25:20.639Z,95942.75
2019-05-03T18:27:46.805Z,95947.50
2019-05-03T18:30:13.393Z,95944.94
2019-05-03T18:32:39.486Z,95943.53
2019-05-03T18:35:05.809Z,95944.99
2019-05-03T18:37:31.701Z,95942.34
2019-05-03T18:39:57.693Z,95938.95
2019-05-03T18:42:44.819Z,95938.80
2019-05-03T18:45:18.773Z,95942.75
2019-05-03T18:47:45.080Z,95970.78
2019-05-03T18:50:11.061Z,95947.33
2019-05-03T18:52:37.146Z,95950.91
2019-05-03T18:55:04.551Z,95957.92
2019-05-03T18:57:30.600Z,95959.53
2019-05-03T18:59:56.705Z,95894.88
2019-05-03T19:02:24.260Z,95966.40
2019-05-03T19:04:52.092Z,95965.42
2019-05-03T19:07:36.549Z,95970.64
2019-05-03T19:10:18.405Z,95964.48
2019-05-03T19:12:58.025Z,95966.05
2019-05-03T19:15:25.156Z,95970.03
2019-05-03T19:17:59.355Z,95970.16
2019-05-03T19:20:25.439Z,95968.16
2019-05-03T19:22:54.429Z,95967.20
2019-05-03T19:25:20.349Z,95968.66
2019-05-03T19:27:46.389Z,95967.55
2019-05-03T19:30:14.875Z,95975.38
2019-05-03T19:32:40.816Z,95977.42
2019-05-03T19:35:06.803Z,95975.88
2019-05-03T19:37:32.685Z,95980.28
2019-05-03T19:39:58.512Z,95981.45
2019-05-03T19:42:24.807Z,95883.34
2019-05-03T19:44:52.032Z,95985.15
2019-05-03T19:47:17.842Z,95987.27
2019-05-03T19:49:45.429Z,95988.68
2019-05-03T19:52:14.483Z,95992.06
2019-05-03T19:54:40.577Z,96000.77
2019-05-03T19:57:06.381Z,95994.77
2019-05-03T19:59:49.221Z,95995.42
2019-05-03T20:02:20.146Z,95994.61
2019-05-03T20:05:06.118Z,96008.45
2019-05-03T20:07:34.701Z,95984.19
2019-05-03T20:10:00.875Z,95979.34
2019-05-03T20:12:26.962Z,95979.13
2019-05-03T20:14:54.603Z,95980.23
2019-05-03T20:17:20.720Z,95980.27
2019-05-03T20:19:46.792Z,95976.95
2019-05-03T20:22:12.610Z,95981.45
2019-05-03T20:24:38.421Z,95976.37
2019-05-03T20:27:04.790Z,95969.97
2019-05-03T20:29:30.561Z,95971.03
2019-05-03T20:31:56.606Z,95973.50
2019-05-03T20:34:22.421Z,95972.87
2019-05-03T20:36:48.204Z,95978.29
2019-05-03T20:39:14.833Z,95974.98
2019-05-03T20:41:40.701Z,95979.48
2019-05-03T20:44:14.780Z,95978.44
2019-05-03T20:46:45.504Z,95978.54
2019-05-03T20:49:14.991Z,95974.38
2019-05-03T20:51:40.914Z,95976.23
2019-05-03T20:54:06.820Z,95976.47
2019-05-03T20:56:32.686Z,95978.20
2019-05-03T20:58:58.514Z,95974.48
2019-05-03T21:01:25.666Z,95979.86
2019-05-03T21:03:51.482Z,95972.67
2019-05-03T21:06:17.308Z,95974.50
2019-05-03T21:08:52.205Z,95971.10
2019-05-03T21:11:10.799Z,95967.97
2019-05-03T21:13:41.886Z,95972.57
2019-05-03T21:16:06.222Z,95971.80
2019-05-03T21:18:34.482Z,95966.34
2019-05-03T21:21:14.833Z,95963.14
2019-05-03T21:23:51.763Z,95963.05
2019-05-03T21:26:17.562Z,95968.79
2019-05-03T21:28:44.934Z,95960.63
2019-05-03T21:31:10.940Z,95967.22
2019-05-03T21:33:36.756Z,95958.11
2019-05-03T21:36:04.667Z,95953.87
2019-05-03T21:38:30.870Z,95960.99
2019-05-03T21:40:56.680Z,95961.77
2019-05-03T21:43:22.477Z,95959.49
2019-05-03T21:45:50.412Z,95962.42
2019-05-03T21:48:20.654Z,95956.55
2019-05-03T21:50:46.750Z,95962.44
2019-05-03T21:53:14.594Z,95960.06
2019-05-03T21:55:40.515Z,95963.02
2019-05-03T21:58:06.572Z,95965.91
2019-05-03T22:00:34.364Z,95968.25
2019-05-03T22:03:00.575Z,95966.75
2019-05-03T22:05:26.659Z,95969.86
2019-05-03T22:07:52.483Z,95966.06
2019-05-03T22:10:18.271Z,95958.23
2019-05-03T22:12:44.050Z,95959.98
2019-05-03T22:15:27.105Z,95952.02
2019-05-03T22:17:57.860Z,95951.94
2019-05-03T22:20:25.593Z,95955.20
2019-05-03T22:23:02.208Z,95953.67
2019-05-03T22:25:30.195Z,95948.47
2019-05-03T22:27:55.985Z,95940.68
2019-05-03T22:30:21.773Z,95931.53
2019-05-03T22:32:47.610Z,95929.28
2019-05-03T22:35:15.590Z,95927.00
2019-05-03T22:37:41.388Z,95928.16
2019-05-03T22:40:07.440Z,95924.33
2019-05-03T22:42:34.576Z,95923.83
2019-05-03T22:45:00.456Z,95928.24
2019-05-03T22:47:26.516Z,95919.58
2019-05-03T22:49:54.646Z,95909.38
2019-05-03T22:52:19.989Z,95912.23
2019-05-03T22:54:46.049Z,95907.75
2019-05-03T22:57:11.851Z,95905.58
2019-05-03T22:59:37.635Z,95903.37
2019-05-03T23:02:03.697Z,95895.38
2019-05-03T23:04:29.466Z,95898.43
2019-05-03T23:06:55.812Z,95893.61
2019-05-03T23:09:21.689Z,95897.62
2019-05-03T23:11:47.484Z,95896.45
2019-05-03T23:14:15.109Z,95894.21
2019-05-03T23:16:41.014Z,95891.53
2019-05-03T23:19:06.820Z,95887.69
2019-05-03T23:21:34.500Z,95892.55
2019-05-03T23:24:00.304Z,95890.98
2019-05-03T23:26:26.101Z,95883.79
2019-05-03T23:28:51.882Z,95881.70
2019-05-03T23:31:17.698Z,95875.11
2019-05-03T23:33:45.211Z,95871.11
2019-05-03T23:36:11.269Z,95868.34
2019-05-03T23:38:37.085Z,95866.20
2019-05-03T23:41:04.789Z,95858.73
2019-05-03T23:43:30.665Z,95855.03
2019-05-03T23:45:56.716Z,95848.61
2019-05-03T23:48:22.541Z,95855.38
2019-05-03T23:50:48.318Z,95849.47
2019-05-03T23:53:15.385Z,95846.36
2019-05-03T23:55:49.100Z,95845.63
2019-05-03T23:58:14.910Z,95833.19
